sensor_id;sensor_type;location;lat;lon;timestamp;P1;durP1;ratioP1;P2;durP2;ratioP2
63900;SDS011;50538;53.482;10.294;2022-07-04T00:05:15;1.53;;;0.90;;
63900;SDS011;50538;53.482;10.294;2022-07-04T00:15:15;1.33;;;0.82;;
63900;SDS011;50538;53.482;10.294;2022-07-04T00:25:16;3.42;;;0.93;;
63900;SDS011;50538;53.482;10.294;2022-07-04T00:35:16;4.32;;;1.10;;
63900;SDS011;50538;53.482;10.294;2022-07-04T00:45:17;3.05;;;1.10;;
63900;SDS011;50538;53.482;10.294;2022-07-04T00:55:17;1.53;;;1.00;;
63900;SDS011;50538;53.482;10.294;2022-07-04T01:05:18;2.60;;;1.20;;
63900;SDS011;50538;53.482;10.294;2022-07-04T01:15:20;2.20;;;1.00;;
63900;SDS011;50538;53.482;10.294;2022-07-04T01:25:21;2.72;;;1.10;;
63900;SDS011;50538;53.482;10.294;2022-07-04T01:35:22;3.88;;;1.40;;
63900;SDS011;50538;53.482;10.294;2022-07-04T01:45:23;6.35;;;1.80;;
63900;SDS011;50538;53.482;10.294;2022-07-04T01:55:23;3.00;;;1.70;;
63900;SDS011;50538;53.482;10.294;2022-07-04T02:05:23;6.80;;;2.03;;
63900;SDS011;50538;53.482;10.294;2022-07-04T02:15:24;8.35;;;2.40;;
63900;SDS011;50538;53.482;10.294;2022-07-04T02:25:25;6.37;;;2.20;;
63900;SDS011;50538;53.482;10.294;2022-07-04T02:35:26;6.82;;;2.58;;
63900;SDS011;50538;53.482;10.294;2022-07-04T02:45:26;4.78;;;2.00;;
63900;SDS011;50538;53.482;10.294;2022-07-04T02:55:26;4.90;;;2.20;;
63900;SDS011;50538;53.482;10.294;2022-07-04T03:05:27;5.32;;;2.58;;
63900;SDS011;50538;53.482;10.294;2022-07-04T03:15:31;4.63;;;2.10;;
63900;SDS011;50538;53.482;10.294;2022-07-04T03:25:32;6.43;;;2.70;;
63900;SDS011;50538;53.482;10.294;2022-07-04T03:35:32;8.50;;;2.85;;
63900;SDS011;50538;53.482;10.294;2022-07-04T03:45:32;10.82;;;3.45;;
63900;SDS011;50538;53.482;10.294;2022-07-04T04:17:41;7.40;;;3.08;;
63900;SDS011;50538;53.482;10.294;2022-07-04T04:39:15;11.13;;;4.30;;
63900;SDS011;50538;53.482;10.294;2022-07-04T04:50:14;8.60;;;3.47;;
63900;SDS011;50538;53.482;10.294;2022-07-04T05:00:33;7.32;;;3.25;;
63900;SDS011;50538;53.482;10.294;2022-07-04T05:11:03;8.45;;;3.10;;
63900;SDS011;50538;53.482;10.294;2022-07-04T05:21:03;8.15;;;2.80;;
63900;SDS011;50538;53.482;10.294;2022-07-04T05:31:03;7.30;;;2.97;;
63900;SDS011;50538;53.482;10.294;2022-07-04T05:41:04;7.65;;;2.58;;
63900;SDS011;50538;53.482;10.294;2022-07-04T05:51:04;5.07;;;2.33;;
63900;SDS011;50538;53.482;10.294;2022-07-04T06:01:06;4.53;;;1.90;;
63900;SDS011;50538;53.482;10.294;2022-07-04T06:11:07;5.25;;;2.00;;
63900;SDS011;50538;53.482;10.294;2022-07-04T06:21:07;3.78;;;1.50;;
63900;SDS011;50538;53.482;10.294;2022-07-04T06:31:07;2.80;;;1.30;;
63900;SDS011;50538;53.482;10.294;2022-07-04T06:41:08;1.13;;;0.73;;
63900;SDS011;50538;53.482;10.294;2022-07-04T06:51:08;2.65;;;0.90;;
63900;SDS011;50538;53.482;10.294;2022-07-04T07:01:09;3.15;;;1.10;;
63900;SDS011;50538;53.482;10.294;2022-07-04T07:11:09;3.28;;;1.17;;
63900;SDS011;50538;53.482;10.294;2022-07-04T07:21:12;2.73;;;0.80;;
63900;SDS011;50538;53.482;10.294;2022-07-04T07:31:13;2.70;;;0.80;;
63900;SDS011;50538;53.482;10.294;2022-07-04T07:41:14;2.50;;;0.90;;
63900;SDS011;50538;53.482;10.294;2022-07-04T07:51:15;5.85;;;0.90;;
63900;SDS011;50538;53.482;10.294;2022-07-04T08:01:16;2.53;;;0.85;;
63900;SDS011;50538;53.482;10.294;2022-07-04T08:11:17;3.27;;;0.70;;
63900;SDS011;50538;53.482;10.294;2022-07-04T08:21:17;2.63;;;0.90;;
63900;SDS011;50538;53.482;10.294;2022-07-04T08:31:18;1.13;;;0.55;;
63900;SDS011;50538;53.482;10.294;2022-07-04T08:41:19;2.63;;;0.68;;
63900;SDS011;50538;53.482;10.294;2022-07-04T08:51:23;1.85;;;0.65;;
63900;SDS011;50538;53.482;10.294;2022-07-04T09:01:31;1.67;;;0.70;;
63900;SDS011;50538;53.482;10.294;2022-07-04T09:11:32;3.33;;;0.67;;
63900;SDS011;50538;53.482;10.294;2022-07-04T09:21:43;1.60;;;0.70;;
63900;SDS011;50538;53.482;10.294;2022-07-04T09:31:45;2.57;;;0.70;;
63900;SDS011;50538;53.482;10.294;2022-07-04T09:41:58;2.58;;;0.70;;
63900;SDS011;50538;53.482;10.294;2022-07-04T09:52:03;1.05;;;0.50;;
63900;SDS011;50538;53.482;10.294;2022-07-04T10:02:09;2.65;;;0.70;;
63900;SDS011;50538;53.482;10.294;2022-07-04T10:12:11;1.60;;;0.70;;
63900;SDS011;50538;53.482;10.294;2022-07-04T10:22:25;0.80;;;0.60;;
63900;SDS011;50538;53.482;10.294;2022-07-04T10:32:26;3.70;;;0.55;;
63900;SDS011;50538;53.482;10.294;2022-07-04T10:42:28;2.92;;;0.73;;
63900;SDS011;50538;53.482;10.294;2022-07-04T10:52:29;1.17;;;0.60;;
63900;SDS011;50538;53.482;10.294;2022-07-04T11:02:30;1.45;;;0.77;;
63900;SDS011;50538;53.482;10.294;2022-07-04T11:12:31;1.67;;;0.70;;
63900;SDS011;50538;53.482;10.294;2022-07-04T11:22:31;1.77;;;0.45;;
63900;SDS011;50538;53.482;10.294;2022-07-04T11:32:32;1.33;;;0.65;;
63900;SDS011;50538;53.482;10.294;2022-07-04T11:42:33;1.77;;;0.45;;
63900;SDS011;50538;53.482;10.294;2022-07-04T11:52:52;2.58;;;0.50;;
63900;SDS011;50538;53.482;10.294;2022-07-04T12:02:57;0.43;;;0.43;;
63900;SDS011;50538;53.482;10.294;2022-07-04T12:13:10;0.52;;;0.50;;
63900;SDS011;50538;53.482;10.294;2022-07-04T12:23:15;0.98;;;0.60;;
63900;SDS011;50538;53.482;10.294;2022-07-04T12:33:19;1.85;;;0.93;;
63900;SDS011;50538;53.482;10.294;2022-07-04T12:43:21;1.45;;;0.77;;
63900;SDS011;50538;53.482;10.294;2022-07-04T12:53:23;1.33;;;0.70;;
63900;SDS011;50538;53.482;10.294;2022-07-04T13:03:23;3.63;;;0.83;;
63900;SDS011;50538;53.482;10.294;2022-07-04T13:13:23;1.47;;;0.67;;
63900;SDS011;50538;53.482;10.294;2022-07-04T13:23:24;2.13;;;0.80;;
63900;SDS011;50538;53.482;10.294;2022-07-04T13:33:24;3.83;;;0.85;;
63900;SDS011;50538;53.482;10.294;2022-07-04T13:43:25;2.57;;;0.90;;
63900;SDS011;50538;53.482;10.294;2022-07-04T13:53:27;0.60;;;0.60;;
63900;SDS011;50538;53.482;10.294;2022-07-04T14:03:28;0.85;;;0.80;;
63900;SDS011;50538;53.482;10.294;2022-07-04T14:13:28;2.40;;;0.93;;
63900;SDS011;50538;53.482;10.294;2022-07-04T14:23:29;0.93;;;0.70;;
63900;SDS011;50538;53.482;10.294;2022-07-04T14:33:41;0.70;;;0.70;;
63900;SDS011;50538;53.482;10.294;2022-07-04T14:53:43;3.70;;;0.80;;
63900;SDS011;50538;53.482;10.294;2022-07-04T15:03:45;1.33;;;0.88;;
63900;SDS011;50538;53.482;10.294;2022-07-04T15:23:45;3.30;;;1.00;;
63900;SDS011;50538;53.482;10.294;2022-07-04T15:34:04;2.10;;;0.93;;
63900;SDS011;50538;53.482;10.294;2022-07-04T15:44:05;1.67;;;0.90;;
63900;SDS011;50538;53.482;10.294;2022-07-04T15:54:09;1.83;;;0.90;;
63900;SDS011;50538;53.482;10.294;2022-07-04T16:04:09;1.63;;;0.93;;
63900;SDS011;50538;53.482;10.294;2022-07-04T16:14:09;4.07;;;1.10;;
63900;SDS011;50538;53.482;10.294;2022-07-04T16:24:10;2.25;;;0.80;;
63900;SDS011;50538;53.482;10.294;2022-07-04T16:34:10;2.75;;;1.00;;
63900;SDS011;50538;53.482;10.294;2022-07-04T16:44:10;1.05;;;0.77;;
63900;SDS011;50538;53.482;10.294;2022-07-04T16:54:11;3.38;;;0.90;;
63900;SDS011;50538;53.482;10.294;2022-07-04T17:04:12;3.08;;;0.90;;
63900;SDS011;50538;53.482;10.294;2022-07-04T17:14:19;2.35;;;1.10;;
63900;SDS011;50538;53.482;10.294;2022-07-04T17:24:19;2.85;;;1.10;;
63900;SDS011;50538;53.482;10.294;2022-07-04T17:34:20;3.15;;;1.00;;
63900;SDS011;50538;53.482;10.294;2022-07-04T17:44:20;2.45;;;0.90;;
63900;SDS011;50538;53.482;10.294;2022-07-04T18:04:24;5.07;;;1.00;;
63900;SDS011;50538;53.482;10.294;2022-07-04T18:14:24;1.42;;;0.77;;
63900;SDS011;50538;53.482;10.294;2022-07-04T18:24:25;3.03;;;0.90;;
63900;SDS011;50538;53.482;10.294;2022-07-04T18:34:25;1.10;;;0.70;;
63900;SDS011;50538;53.482;10.294;2022-07-04T18:44:26;1.88;;;1.13;;
63900;SDS011;50538;53.482;10.294;2022-07-04T18:54:26;1.42;;;0.60;;
63900;SDS011;50538;53.482;10.294;2022-07-04T19:04:26;4.43;;;0.95;;
63900;SDS011;50538;53.482;10.294;2022-07-04T19:14:28;3.38;;;0.70;;
63900;SDS011;50538;53.482;10.294;2022-07-04T19:24:28;4.07;;;0.93;;
63900;SDS011;50538;53.482;10.294;2022-07-04T19:34:29;0.57;;;0.40;;
63900;SDS011;50538;53.482;10.294;2022-07-04T19:44:30;1.15;;;0.50;;
63900;SDS011;50538;53.482;10.294;2022-07-04T19:54:31;2.80;;;0.88;;
63900;SDS011;50538;53.482;10.294;2022-07-04T20:04:31;3.97;;;0.82;;
63900;SDS011;50538;53.482;10.294;2022-07-04T20:14:31;2.88;;;0.60;;
63900;SDS011;50538;53.482;10.294;2022-07-04T20:24:32;1.35;;;0.70;;
63900;SDS011;50538;53.482;10.294;2022-07-04T20:34:32;1.80;;;0.57;;
63900;SDS011;50538;53.482;10.294;2022-07-04T20:44:34;0.40;;;0.40;;
63900;SDS011;50538;53.482;10.294;2022-07-04T20:54:34;2.15;;;0.70;;
63900;SDS011;50538;53.482;10.294;2022-07-04T21:04:35;3.42;;;0.80;;
63900;SDS011;50538;53.482;10.294;2022-07-04T21:14:35;2.08;;;0.70;;
63900;SDS011;50538;53.482;10.294;2022-07-04T21:24:36;3.67;;;0.90;;
63900;SDS011;50538;53.482;10.294;2022-07-04T21:34:36;0.45;;;0.45;;
63900;SDS011;50538;53.482;10.294;2022-07-04T21:44:36;1.55;;;0.60;;
63900;SDS011;50538;53.482;10.294;2022-07-04T21:54:37;1.83;;;0.80;;
63900;SDS011;50538;53.482;10.294;2022-07-04T22:04:37;1.58;;;0.70;;
63900;SDS011;50538;53.482;10.294;2022-07-04T22:14:38;1.38;;;0.70;;
63900;SDS011;50538;53.482;10.294;2022-07-04T22:24:38;1.15;;;0.60;;
63900;SDS011;50538;53.482;10.294;2022-07-04T22:34:38;2.17;;;0.70;;
63900;SDS011;50538;53.482;10.294;2022-07-04T22:44:39;1.30;;;0.60;;
63900;SDS011;50538;53.482;10.294;2022-07-04T22:54:39;3.10;;;0.60;;
63900;SDS011;50538;53.482;10.294;2022-07-04T23:04:51;3.42;;;0.80;;
63900;SDS011;50538;53.482;10.294;2022-07-04T23:14:53;1.48;;;0.50;;
63900;SDS011;50538;53.482;10.294;2022-07-04T23:24:53;1.48;;;0.68;;
63900;SDS011;50538;53.482;10.294;2022-07-04T23:34:53;1.95;;;0.60;;
63900;SDS011;50538;53.482;10.294;2022-07-04T23:44:54;0.88;;;0.60;;
63900;SDS011;50538;53.482;10.294;2022-07-04T23:54:54;0.85;;;0.52;;
